Saturday, August 18, 2018, 1:59 PM GMT
Back to Local

CWWE, Western Head, N. S.

Location: , , Canada Lat: 43.983
Local Time: 1:59 PM GMT (13:59 GMT) Lon: -64.667
Time Zone: GMT Elev: 29 ft

Show me the last for .
Show Coded

Time T Td Feel RH Dir Speed Gust Alt SLP Vis Weather Sky Remarks
2018-08-18 13:00 60 60 - 99 180° 10 - - 29.87 0 None
2018-08-18 12:00 61 61 - 100 170° 15 - - 29.88 0 None
2018-08-18 11:00 60 60 - 100 160° 13 - - 29.90 0 None
2018-08-18 10:00 60 60 - 100 180° 8 - - 29.91 0 None
2018-08-18 09:00 58 58 - 100 170° 3 - - 29.93 0 None
2018-08-18 08:00 56 56 - 100 50° 2 - - 29.95 0 None
2018-08-18 07:00 57 57 - 100 140° 2 - - 29.97 0 None
2018-08-18 06:00 55 55 - 100 180° 2 - - 30.00 0 None
2018-08-18 05:00 55 55 - 100 240° 5 - - 30.01 0 None
2018-08-18 04:00 53 54 - 106 240° 3 - - 30.03 0 None
2018-08-18 03:00 56 56 - 99 250° 6 - - 30.03 0 None
2018-08-18 02:00 58 57 - 98 240° 7 - - 30.04 0 None
2018-08-18 01:00 58 57 - 97 230° 7 - - 30.06 0 None
2018-08-18 00:00 56 57 - 102 220° 9 - - 30.06 0 None
2018-08-17 23:00 58 57 - 95 210° 8 - - 30.05 0 None
2018-08-17 22:00 61 58 - 88 210° 9 - - 30.05 0 None
2018-08-17 21:00 63 58 - 84 210° 10 - - 30.06 0 None
2018-08-17 20:00 65 58 - 80 210° 10 - - 30.07 0 None
2018-08-17 19:00 66 60 - 80 210° 6 - - 30.07 0 None
2018-08-17 18:00 66 60 - 79 190° 6 - - 30.08 0 None
2018-08-17 17:00 66 60 - 80 170° 5 - - 30.09 0 None
2018-08-17 16:00 70 60 - 71 110° 7 - - 30.10 0 None
2018-08-17 15:00 69 60 - 71 110° 6 - - 30.11 0 None
2018-08-17 14:00 69 60 - 72 80° 5 - - 30.11 0 None

Support USWX by starting your Amazon purchase here.